ZAD weather

Zadar Airport
Zemunik (Zadar), Zadar County, Croatia

Public forecast

Using degrees Celsius for public forecast. Weather courtesy of forecast.io.

Current aviation weather report (METAR) for Zadar Airport

Retrieved 2020/06/01 05:30 UTC (8 minutes ago):

LDZD 010530Z 29005KT 240V350 9999 FEW050 18/06 Q1016 NOSIG

Aviation forecast (TAF) for Zadar Airport

Retrieved 2020-06-01 00:31 UTC (5 hours ago):

TAF LDZD 312325Z 0100/0200 07006KT 9999 FEW050 TX24/0113Z TN11/0104Z TEMPO 0109/0116 30010KT BECMG 0117/0119 05008KT